Estación Meteorológica Peña el Pijo (Robertgarden) [ 07/21/19 02:19:50 CEST ]

Fecha Hora Presion(HPa) Temp (°C) Humedad % Rocio (°C) Viento ( m/s) Direccion Lluvia 1Hora(mm) Lluvia 24H(mm) LLuvia Total(mm)
2018-Nov-30 01:01:42 1007.700 9.4 47 -1.4         154.88
2018-Nov-30 02:03:12 1007.400 8.5 48 -1.9         154.88
2018-Nov-30 03:01:50 1006.900 6.7 55 -1.7         154.88
2018-Nov-30 04:01:46 1006.800 4.9 61 -2.0         154.88
2018-Nov-30 05:02:00 1006.800 9.1 65 2.8         154.88
2018-Nov-30 06:01:42 1006.200 9.2 70 4.0         154.88
2018-Nov-30 07:01:43 1006.400 9.4 76 5.3         154.88
2018-Nov-30 08:01:48 1006.900 9.0 78 5.3         154.88
2018-Nov-30 09:01:47 1007.000 9.1 79 5.6         154.88
2018-Nov-30 10:01:56 1007.200 10.2 76 6.1         154.88
2018-Nov-30 11:01:51 1008.200 10.7 66 4.6         154.88
2018-Nov-30 12:01:55 1008.600 12.3 60 4.8 3.7 N     154.88
2018-Nov-30 13:01:46 1008.400 10.9 55 2.2         154.88
2018-Nov-30 14:01:57 1008.600 13.0 55 4.1         154.88
2018-Nov-30 15:01:49 1008.100 11.9 51 2.1 3.5 NNW     154.88
2018-Nov-30 16:01:54 1008.700 11.4 51 1.6         154.88
2018-Nov-30 17:01:39 1009.600 8.8 58 1.0         154.88
2018-Nov-30 18:01:57 1010.200 7.0 62 0.2         154.88
2018-Nov-30 19:01:57 1010.500 4.7 67 -0.9         154.88
2018-Nov-30 20:01:57 1011.000 3.4 73 -1.0         154.88
2018-Nov-30 21:01:52 1011.400 3.0 75 -1.0         154.88
2018-Nov-30 22:01:49 1012.200 1.5 76 -2.3         154.88
2018-Nov-30 23:02:07 1012.600 1.2 78 -2.3         154.88

Temperatura Máxima:13°    Temperatura Mínima:
Presión Máxima:1012.600 Hpa    Presión Mínima:1006.200 Hpa


Volver